createdAt,value
2022-08-25T00:02:00.101Z,1.70
2022-08-25T00:04:31.010Z,1.80
2022-08-25T00:07:03.948Z,1.80
2022-08-25T00:09:33.914Z,1.60
2022-08-25T00:12:02.905Z,1.10
2022-08-25T00:14:36.307Z,1.40
2022-08-25T00:17:06.125Z,1.80
2022-08-25T00:19:37.006Z,2.50
2022-08-25T00:22:08.129Z,1.50
2022-08-25T00:24:36.785Z,1.70
2022-08-25T00:27:06.084Z,1.70
2022-08-25T00:29:34.732Z,1.60
2022-08-25T00:32:03.334Z,2.00
2022-08-25T00:34:36.072Z,1.70
2022-08-25T00:37:07.381Z,2.40
2022-08-25T00:39:36.394Z,1.60
2022-08-25T00:42:06.906Z,2.10
2022-08-25T00:44:44.534Z,1.80
2022-08-25T00:47:13.262Z,2.10
2022-08-25T00:49:59.591Z,1.60
2022-08-25T00:52:42.931Z,1.70
2022-08-25T00:55:13.023Z,2.10
2022-08-25T00:57:46.131Z,1.80
2022-08-25T01:00:24.851Z,1.70
2022-08-25T01:02:53.753Z,1.50
2022-08-25T01:05:22.650Z,1.80
2022-08-25T01:07:52.843Z,1.80
2022-08-25T01:10:28.930Z,1.70
2022-08-25T01:13:03.113Z,1.60
2022-08-25T01:15:35.278Z,1.60
2022-08-25T01:18:07.811Z,1.60
2022-08-25T01:20:35.837Z,2.00
2022-08-25T01:23:04.422Z,2.40
2022-08-25T01:26:01.785Z,1.90
2022-08-25T01:28:29.949Z,1.80
2022-08-25T01:30:58.006Z,1.70
2022-08-25T01:33:26.136Z,1.70
2022-08-25T01:35:54.553Z,1.30
2022-08-25T01:38:23.452Z,1.40
2022-08-25T01:40:51.570Z,2.10
2022-08-25T01:43:37.195Z,1.80
2022-08-25T01:46:06.893Z,2.10
2022-08-25T01:48:35.198Z,1.90
2022-08-25T01:51:03.167Z,1.80
2022-08-25T01:53:33.685Z,2.10
2022-08-25T01:56:12.101Z,1.90
2022-08-25T01:58:44.006Z,2.20
2022-08-25T02:01:16.355Z,2.40
2022-08-25T02:03:47.193Z,1.90
2022-08-25T02:06:19.649Z,2.00
2022-08-25T02:08:54.366Z,2.40
2022-08-25T02:11:24.402Z,2.90
2022-08-25T02:13:52.937Z,2.50
2022-08-25T02:16:29.609Z,2.20
2022-08-25T02:18:57.650Z,2.40
2022-08-25T02:21:25.834Z,2.30
2022-08-25T02:23:54.902Z,2.40
2022-08-25T02:26:23.062Z,2.50
2022-08-25T02:28:52.269Z,2.80
2022-08-25T02:31:22.753Z,2.90
2022-08-25T02:33:52.133Z,2.30
2022-08-25T02:36:20.453Z,2.80
2022-08-25T02:38:48.765Z,2.70
2022-08-25T02:41:31.412Z,2.70
2022-08-25T02:44:01.988Z,2.20
2022-08-25T02:46:31.164Z,2.90
2022-08-25T02:48:59.460Z,2.40
2022-08-25T02:51:30.287Z,3.20
2022-08-25T02:54:02.185Z,2.90
2022-08-25T02:56:31.635Z,2.80
2022-08-25T02:59:00.883Z,2.90
2022-08-25T03:01:30.793Z,2.50
2022-08-25T03:03:59.709Z,2.60
2022-08-25T03:06:28.659Z,2.80
2022-08-25T03:08:57.083Z,2.50
2022-08-25T03:11:26.801Z,3.20
2022-08-25T03:13:56.611Z,2.70
2022-08-25T03:16:27.803Z,3.10
2022-08-25T03:18:57.033Z,2.80
2022-08-25T03:21:26.945Z,2.80
2022-08-25T03:23:55.452Z,3.30
2022-08-25T03:26:42.242Z,3.00
2022-08-25T03:29:10.690Z,3.00
2022-08-25T03:31:39.140Z,3.10
2022-08-25T03:34:07.142Z,3.20
2022-08-25T03:36:35.043Z,3.30
2022-08-25T03:39:04.290Z,4.10
2022-08-25T03:41:33.087Z,3.40
2022-08-25T03:44:04.227Z,3.20
2022-08-25T03:46:35.545Z,3.20
2022-08-25T03:49:05.342Z,3.30
2022-08-25T03:51:36.444Z,3.20
2022-08-25T03:54:05.329Z,2.90
2022-08-25T03:56:33.431Z,3.60
2022-08-25T03:59:01.404Z,3.20
2022-08-25T04:01:30.467Z,3.70
2022-08-25T04:03:58.419Z,3.50
2022-08-25T04:06:26.455Z,3.80
2022-08-25T04:08:54.473Z,3.50
2022-08-25T04:11:23.501Z,3.10
2022-08-25T04:13:53.385Z,3.00
2022-08-25T04:16:24.534Z,4.00
2022-08-25T04:18:55.225Z,3.00
2022-08-25T04:21:24.220Z,3.50
2022-08-25T04:23:53.944Z,4.20
2022-08-25T04:26:32.457Z,4.00
2022-08-25T04:29:01.913Z,3.70
2022-08-25T04:31:30.855Z,3.60
2022-08-25T04:34:02.713Z,3.70
2022-08-25T04:36:31.230Z,4.30
2022-08-25T04:39:00.022Z,4.00
2022-08-25T04:41:30.324Z,4.30
2022-08-25T04:44:00.671Z,4.50
2022-08-25T04:46:31.778Z,4.70
2022-08-25T04:49:01.135Z,4.40
2022-08-25T04:51:50.846Z,4.70
2022-08-25T04:54:22.138Z,4.40
2022-08-25T04:56:54.445Z,4.70
2022-08-25T04:59:30.076Z,5.00
2022-08-25T05:02:03.295Z,5.10
2022-08-25T05:04:33.403Z,5.30
2022-08-25T05:07:02.497Z,5.20
2022-08-25T05:09:32.502Z,5.00
2022-08-25T05:12:03.143Z,5.20
2022-08-25T05:14:32.901Z,4.30
2022-08-25T05:17:02.202Z,5.30
2022-08-25T05:19:31.153Z,5.10
2022-08-25T05:21:59.691Z,4.90
2022-08-25T05:24:28.303Z,4.90
2022-08-25T05:26:57.462Z,4.90
2022-08-25T05:29:25.999Z,5.30
2022-08-25T05:31:54.449Z,5.20
2022-08-25T05:34:22.395Z,5.80
2022-08-25T05:36:51.409Z,5.80
2022-08-25T05:39:19.489Z,5.20
2022-08-25T05:41:47.512Z,5.50
2022-08-25T05:44:19.059Z,5.80
2022-08-25T05:46:49.560Z,5.10
2022-08-25T05:49:17.543Z,5.10
2022-08-25T05:51:45.396Z,5.00
2022-08-25T05:54:13.438Z,5.30
2022-08-25T05:56:45.615Z,5.70
2022-08-25T05:59:13.860Z,4.60
2022-08-25T06:02:01.039Z,4.90
2022-08-25T06:04:29.492Z,4.80
2022-08-25T06:06:57.350Z,5.20
2022-08-25T06:09:25.409Z,5.10
2022-08-25T06:11:55.206Z,5.10
2022-08-25T06:14:24.695Z,5.40
2022-08-25T06:16:53.115Z,5.30
2022-08-25T06:19:23.724Z,5.80
2022-08-25T06:21:58.590Z,6.10
2022-08-25T06:24:28.159Z,5.40
2022-08-25T06:26:57.553Z,5.10
2022-08-25T06:29:26.453Z,5.70
2022-08-25T06:31:54.484Z,5.70
2022-08-25T06:34:24.281Z,6.10
2022-08-25T06:36:53.017Z,5.60
2022-08-25T06:39:24.191Z,6.40
2022-08-25T06:41:56.853Z,5.60
2022-08-25T06:44:27.909Z,6.00
2022-08-25T06:46:56.186Z,5.90
2022-08-25T06:49:28.739Z,5.90
2022-08-25T06:51:59.273Z,6.80
2022-08-25T06:54:27.143Z,5.70
2022-08-25T06:56:55.220Z,5.90
2022-08-25T06:59:23.351Z,5.60
2022-08-25T07:01:51.447Z,5.10
2022-08-25T07:04:21.133Z,5.20
2022-08-25T07:06:49.152Z,5.80
2022-08-25T07:09:17.226Z,5.30
2022-08-25T07:11:46.813Z,5.20
2022-08-25T07:14:16.781Z,5.60
2022-08-25T07:16:49.387Z,5.90
2022-08-25T07:19:21.115Z,5.60
2022-08-25T07:21:52.136Z,6.40
2022-08-25T07:24:21.026Z,7.00
2022-08-25T07:26:50.244Z,5.70
2022-08-25T07:29:32.813Z,6.40
2022-08-25T07:32:03.022Z,5.90
2022-08-25T07:34:52.261Z,5.90
2022-08-25T07:40:21.795Z,6.60
2022-08-25T07:42:53.533Z,5.50
2022-08-25T07:45:30.478Z,5.50
2022-08-25T07:48:12.152Z,6.20
2022-08-25T07:50:45.440Z,5.90
2022-08-25T07:53:15.105Z,7.00
2022-08-25T07:55:45.136Z,5.70
2022-08-25T07:58:15.834Z,5.60
2022-08-25T08:00:48.477Z,5.70
2022-08-25T08:03:42.209Z,5.90
2022-08-25T08:06:10.695Z,5.70
2022-08-25T08:08:43.961Z,7.20
2022-08-25T08:11:21.150Z,6.90
2022-08-25T08:13:52.468Z,6.10
2022-08-25T08:16:23.124Z,6.40
2022-08-25T08:18:52.719Z,6.80
2022-08-25T08:21:24.057Z,6.40
2022-08-25T08:23:58.064Z,5.90
2022-08-25T08:26:48.336Z,7.40
2022-08-25T08:29:16.656Z,6.80
2022-08-25T08:31:48.323Z,6.80
2022-08-25T08:34:16.692Z,6.00
2022-08-25T08:36:45.221Z,6.50
2022-08-25T08:39:13.751Z,6.60
2022-08-25T08:42:19.082Z,6.10
2022-08-25T08:45:25.219Z,6.70
2022-08-25T08:48:03.876Z,6.80
2022-08-25T08:51:17.922Z,6.70
2022-08-25T08:54:00.769Z,6.30
2022-08-25T08:56:34.795Z,7.10
2022-08-25T08:59:13.370Z,6.50
2022-08-25T09:01:53.996Z,6.70
2022-08-25T09:04:40.778Z,7.50
2022-08-25T09:07:16.678Z,8.00
2022-08-25T09:09:45.802Z,6.30
2022-08-25T09:12:34.343Z,6.50
2022-08-25T09:15:12.535Z,7.20
2022-08-25T09:18:05.616Z,6.40
2022-08-25T09:20:40.988Z,7.60
2022-08-25T09:23:20.142Z,8.00
2022-08-25T09:26:14.608Z,7.40
2022-08-25T09:28:51.962Z,7.90
2022-08-25T09:31:27.604Z,7.20
2022-08-25T09:34:03.518Z,7.00
2022-08-25T09:36:43.095Z,5.80
2022-08-25T09:42:06.424Z,6.70
2022-08-25T09:44:47.961Z,6.90
2022-08-25T09:47:35.827Z,7.00
2022-08-25T09:50:25.554Z,7.10
2022-08-25T09:53:13.706Z,7.50
2022-08-25T09:56:06.064Z,8.00
2022-08-25T09:58:34.127Z,7.60
2022-08-25T10:01:04.853Z,6.40
2022-08-25T10:03:36.531Z,7.20
2022-08-25T10:06:13.653Z,8.00
2022-08-25T10:08:56.463Z,8.00
2022-08-25T10:11:42.359Z,6.80
2022-08-25T10:14:26.696Z,6.80
2022-08-25T10:17:15.421Z,7.60
2022-08-25T10:19:44.403Z,8.20
2022-08-25T10:22:24.465Z,7.10
2022-08-25T10:24:53.112Z,7.80
2022-08-25T10:27:39.533Z,7.80
2022-08-25T10:30:17.462Z,7.20
2022-08-25T10:33:08.462Z,7.10
2022-08-25T10:35:47.266Z,7.10
2022-08-25T10:38:43.292Z,7.30
2022-08-25T10:41:29.661Z,7.10
2022-08-25T10:44:32.494Z,8.00
2022-08-25T10:47:22.189Z,7.40
2022-08-25T10:49:56.512Z,7.00
2022-08-25T10:52:39.382Z,7.20
2022-08-25T10:55:18.851Z,6.90
2022-08-25T10:57:52.858Z,6.70
2022-08-25T11:00:24.866Z,6.70
2022-08-25T11:03:06.529Z,6.70
2022-08-25T11:05:40.348Z,7.20
2022-08-25T11:08:27.095Z,6.80
2022-08-25T11:11:04.042Z,6.90
2022-08-25T11:13:47.821Z,6.70
2022-08-25T11:16:40.588Z,5.30
2022-08-25T11:19:17.846Z,5.70
2022-08-25T11:21:54.291Z,6.60
2022-08-25T11:24:48.523Z,6.80
2022-08-25T11:27:26.483Z,4.10
2022-08-25T11:30:22.063Z,4.50
2022-08-25T11:32:55.257Z,3.60
2022-08-25T11:35:37.891Z,3.60
2022-08-25T11:38:33.802Z,3.00
2022-08-25T11:41:18.331Z,2.90
2022-08-25T11:44:10.864Z,3.30
2022-08-25T11:46:45.753Z,2.80
2022-08-25T11:49:16.515Z,3.00
2022-08-25T11:51:48.265Z,3.20
2022-08-25T11:54:39.513Z,2.60
2022-08-25T11:57:22.439Z,2.60
2022-08-25T11:59:50.501Z,3.10
2022-08-25T12:02:40.727Z,2.70
2022-08-25T12:05:20.129Z,3.00
2022-08-25T12:08:08.590Z,2.70
2022-08-25T12:10:59.030Z,3.10
2022-08-25T12:13:44.269Z,2.60
2022-08-25T12:16:37.228Z,3.10
2022-08-25T12:19:26.755Z,3.20
2022-08-25T12:21:58.892Z,2.60
2022-08-25T12:24:49.833Z,3.20
2022-08-25T12:27:24.934Z,2.70
2022-08-25T12:30:27.616Z,3.50
2022-08-25T12:33:21.270Z,3.00
2022-08-25T12:36:11.173Z,2.60
2022-08-25T12:38:52.086Z,3.50
2022-08-25T12:41:24.486Z,2.90
2022-08-25T12:44:10.480Z,2.60
2022-08-25T12:46:43.663Z,3.30
2022-08-25T12:49:32.298Z,3.30
2022-08-25T12:52:15.082Z,2.60
2022-08-25T12:54:54.701Z,2.70
2022-08-25T12:57:41.274Z,2.80
2022-08-25T13:00:22.509Z,3.70
2022-08-25T13:03:11.991Z,3.30
2022-08-25T13:05:46.501Z,2.70
2022-08-25T13:08:27.202Z,2.60
2022-08-25T13:11:20.242Z,3.20
2022-08-25T13:14:08.236Z,3.50
2022-08-25T13:16:38.382Z,2.60
2022-08-25T13:19:18.083Z,2.50
2022-08-25T13:21:47.462Z,2.40
2022-08-25T13:24:27.248Z,3.00
2022-08-25T13:27:02.075Z,2.80
2022-08-25T13:29:37.678Z,3.30
2022-08-25T13:32:14.423Z,2.90
2022-08-25T13:34:44.074Z,3.10
2022-08-25T13:37:30.208Z,3.20
2022-08-25T13:40:15.104Z,3.70
2022-08-25T13:42:55.664Z,3.20
2022-08-25T13:45:31.693Z,2.80
2022-08-25T13:47:59.876Z,2.80
2022-08-25T13:50:28.695Z,3.20
2022-08-25T13:53:22.887Z,3.10
2022-08-25T13:56:01.665Z,2.70
2022-08-25T13:58:45.043Z,3.20
2022-08-25T14:01:47.713Z,3.00
2022-08-25T14:04:32.509Z,2.20
2022-08-25T14:07:22.631Z,3.60
2022-08-25T14:09:57.314Z,2.40
2022-08-25T14:12:44.702Z,3.10
2022-08-25T14:15:22.212Z,2.40
2022-08-25T14:18:05.009Z,3.30
2022-08-25T14:20:36.018Z,3.10
2022-08-25T14:23:18.746Z,2.20
2022-08-25T14:25:49.605Z,3.00
2022-08-25T14:28:23.639Z,2.60
2022-08-25T14:30:56.446Z,2.60
2022-08-25T14:33:29.164Z,2.80
2022-08-25T14:36:00.151Z,2.90
2022-08-25T14:38:28.185Z,2.90
2022-08-25T14:40:59.239Z,1.70
2022-08-25T14:43:31.583Z,2.70
2022-08-25T14:46:10.057Z,3.50
2022-08-25T14:48:47.086Z,3.10
2022-08-25T14:51:17.297Z,3.90
2022-08-25T14:53:45.275Z,3.40
2022-08-25T14:56:14.243Z,3.70
2022-08-25T14:58:50.838Z,3.70
2022-08-25T15:01:26.467Z,2.90
2022-08-25T15:04:06.045Z,3.00
2022-08-25T15:06:36.518Z,3.40
2022-08-25T15:09:12.990Z,2.90
2022-08-25T15:11:45.006Z,2.60
2022-08-25T15:14:16.014Z,3.40
2022-08-25T15:16:51.597Z,2.80
2022-08-25T15:19:23.700Z,3.20
2022-08-25T15:21:52.556Z,3.10
2022-08-25T15:24:22.913Z,3.10
2022-08-25T15:29:30.394Z,2.50
2022-08-25T15:32:00.456Z,3.10
2022-08-25T15:34:54.598Z,3.30
2022-08-25T15:37:22.605Z,3.00
2022-08-25T15:39:50.800Z,2.70
2022-08-25T15:42:19.575Z,2.90
2022-08-25T15:44:53.073Z,3.30
2022-08-25T15:47:24.215Z,2.60
2022-08-25T15:50:04.107Z,2.40
2022-08-25T15:52:46.188Z,1.90
2022-08-25T15:55:16.595Z,2.80
2022-08-25T15:57:44.712Z,2.10
2022-08-25T16:00:13.533Z,2.50
2022-08-25T16:02:46.231Z,2.50
2022-08-25T16:05:16.377Z,3.00
2022-08-25T16:07:46.261Z,3.50
2022-08-25T16:10:20.833Z,2.60
2022-08-25T16:12:49.960Z,2.70
2022-08-25T16:15:17.881Z,3.60
2022-08-25T16:17:52.024Z,3.40
2022-08-25T16:20:21.032Z,2.60
2022-08-25T16:22:51.256Z,3.20
2022-08-25T16:25:19.743Z,2.90
2022-08-25T16:27:48.770Z,3.30
2022-08-25T16:30:17.791Z,2.70
2022-08-25T16:32:47.051Z,3.00
2022-08-25T16:35:16.540Z,3.50
2022-08-25T16:37:44.503Z,3.10
2022-08-25T16:40:14.729Z,2.80
2022-08-25T16:42:42.969Z,2.50
2022-08-25T16:45:11.897Z,3.10
2022-08-25T16:47:40.069Z,3.30
2022-08-25T16:50:11.436Z,3.50
2022-08-25T16:52:59.341Z,3.50
2022-08-25T16:55:39.494Z,2.80
2022-08-25T16:58:12.670Z,2.90
2022-08-25T17:00:44.672Z,3.10
2022-08-25T17:03:13.374Z,3.00
2022-08-25T17:05:42.896Z,2.80
2022-08-25T17:08:30.768Z,3.00
2022-08-25T17:11:18.298Z,2.80
2022-08-25T17:13:49.854Z,3.10
2022-08-25T17:16:21.203Z,2.80
2022-08-25T17:18:49.269Z,3.20
2022-08-25T17:21:24.550Z,3.20
2022-08-25T17:23:55.555Z,2.90
2022-08-25T17:26:27.807Z,2.90
2022-08-25T17:28:59.182Z,2.70
2022-08-25T17:31:29.900Z,2.60
2022-08-25T17:33:58.985Z,2.60
2022-08-25T17:36:27.964Z,3.40
2022-08-25T17:38:57.045Z,2.50
2022-08-25T17:41:26.119Z,2.20
2022-08-25T17:43:53.953Z,2.20
2022-08-25T17:46:22.047Z,2.70
2022-08-25T17:48:50.178Z,3.00
2022-08-25T17:51:18.370Z,2.00
2022-08-25T17:53:46.986Z,2.70
2022-08-25T17:56:18.645Z,2.20
2022-08-25T17:58:47.531Z,2.90
2022-08-25T18:01:22.401Z,2.70
2022-08-25T18:03:51.534Z,2.50
2022-08-25T18:06:23.241Z,3.00
2022-08-25T18:08:56.333Z,2.50
2022-08-25T18:11:28.897Z,2.50
2022-08-25T18:13:58.515Z,3.40
2022-08-25T18:16:28.459Z,2.40
2022-08-25T18:18:57.249Z,2.60
2022-08-25T18:21:30.729Z,2.50
2022-08-25T18:23:59.226Z,2.80
2022-08-25T18:26:27.918Z,2.30
2022-08-25T18:28:56.402Z,2.60
2022-08-25T18:31:25.302Z,3.20
2022-08-25T18:33:53.342Z,3.10
2022-08-25T18:36:21.389Z,2.40
2022-08-25T18:39:09.550Z,3.00
2022-08-25T18:41:40.427Z,2.40
2022-08-25T18:44:10.722Z,3.20
2022-08-25T18:46:40.592Z,2.50
2022-08-25T18:49:08.954Z,3.30
2022-08-25T18:51:37.531Z,2.20
2022-08-25T18:54:06.046Z,2.40
2022-08-25T18:56:35.001Z,2.20
2022-08-25T18:59:04.578Z,2.40
2022-08-25T19:01:36.038Z,2.30
2022-08-25T19:04:05.070Z,2.30
2022-08-25T19:06:33.247Z,1.80
2022-08-25T19:09:01.102Z,2.00
2022-08-25T19:11:29.025Z,2.30
2022-08-25T19:13:58.283Z,2.30
2022-08-25T19:16:36.451Z,2.30
2022-08-25T19:19:07.115Z,1.80
2022-08-25T19:21:35.558Z,2.70
2022-08-25T19:24:04.820Z,2.70
2022-08-25T19:26:34.603Z,2.50
2022-08-25T19:29:11.506Z,2.20
2022-08-25T19:31:41.356Z,2.50
2022-08-25T19:34:13.554Z,2.20
2022-08-25T19:36:44.186Z,2.30
2022-08-25T19:39:13.890Z,2.40
2022-08-25T19:41:45.986Z,2.00
2022-08-25T19:44:14.264Z,2.60
2022-08-25T19:46:44.905Z,2.10
2022-08-25T19:49:17.425Z,2.50
2022-08-25T19:51:51.108Z,2.40
2022-08-25T19:54:26.890Z,1.80
2022-08-25T19:56:55.889Z,2.00
2022-08-25T19:59:40.383Z,2.50
2022-08-25T20:02:29.573Z,3.00
2022-08-25T20:05:02.248Z,2.50
2022-08-25T20:07:31.437Z,2.30
2022-08-25T20:10:00.409Z,1.90
2022-08-25T20:12:29.110Z,1.90
2022-08-25T20:14:57.922Z,1.80
2022-08-25T20:17:28.463Z,2.00
2022-08-25T20:20:02.231Z,1.80
2022-08-25T20:22:34.464Z,2.30
2022-08-25T20:25:13.690Z,1.90
2022-08-25T20:27:45.983Z,2.70
2022-08-25T20:30:27.346Z,2.30
2022-08-25T20:32:57.370Z,1.60
2022-08-25T20:35:27.310Z,2.30
2022-08-25T20:37:57.316Z,2.20
2022-08-25T20:40:28.177Z,2.10
2022-08-25T20:43:02.950Z,2.60
2022-08-25T20:45:32.046Z,2.90
2022-08-25T20:48:00.485Z,2.20
2022-08-25T20:50:28.900Z,2.80
2022-08-25T20:52:58.837Z,2.40
2022-08-25T20:55:29.468Z,2.30
2022-08-25T20:58:00.943Z,2.20
2022-08-25T21:00:28.858Z,2.20
2022-08-25T21:02:57.225Z,2.30
2022-08-25T21:05:25.430Z,2.60
2022-08-25T21:07:54.423Z,2.40
2022-08-25T21:10:22.794Z,2.20
2022-08-25T21:12:53.506Z,2.60
2022-08-25T21:15:21.595Z,2.30
2022-08-25T21:17:54.677Z,2.10
2022-08-25T21:20:24.250Z,2.20
2022-08-25T21:22:53.222Z,2.50
2022-08-25T21:25:23.655Z,2.60
2022-08-25T21:27:52.994Z,2.40
2022-08-25T21:30:21.336Z,2.60
2022-08-25T21:32:53.582Z,2.90
2022-08-25T21:35:23.346Z,2.60
2022-08-25T21:37:53.380Z,3.20
2022-08-25T21:40:23.347Z,2.50
2022-08-25T21:42:52.575Z,2.30
2022-08-25T21:45:21.767Z,2.30
2022-08-25T21:47:51.995Z,2.60
2022-08-25T21:50:20.919Z,3.00
2022-08-25T21:52:48.819Z,2.70
2022-08-25T21:55:24.104Z,2.70
2022-08-25T21:57:52.840Z,2.20
2022-08-25T22:00:23.587Z,2.50
2022-08-25T22:02:51.878Z,2.90
2022-08-25T22:05:20.107Z,2.50
2022-08-25T22:07:48.046Z,2.90
2022-08-25T22:10:17.701Z,2.80
2022-08-25T22:12:48.175Z,2.40
2022-08-25T22:15:17.858Z,2.40
2022-08-25T22:17:48.107Z,2.20
2022-08-25T22:20:18.043Z,2.30
2022-08-25T22:22:46.262Z,2.70
2022-08-25T22:25:14.615Z,2.30
2022-08-25T22:27:42.815Z,2.30
2022-08-25T22:30:11.411Z,2.20
2022-08-25T22:32:39.272Z,2.20
2022-08-25T22:35:08.331Z,1.80
2022-08-25T22:37:37.593Z,2.50
2022-08-25T22:40:06.476Z,2.30
2022-08-25T22:42:34.503Z,2.70
2022-08-25T22:45:02.527Z,2.90
2022-08-25T22:47:31.377Z,2.70
2022-08-25T22:49:59.615Z,2.70
2022-08-25T22:52:33.374Z,2.30
2022-08-25T22:55:03.174Z,2.40
2022-08-25T22:57:31.818Z,2.60
2022-08-25T22:59:59.771Z,2.30
2022-08-25T23:02:28.306Z,2.50
2022-08-25T23:05:00.875Z,2.10
2022-08-25T23:07:29.718Z,2.40
2022-08-25T23:10:03.293Z,2.60
2022-08-25T23:12:32.798Z,2.10
2022-08-25T23:15:01.254Z,2.70
2022-08-25T23:17:31.848Z,2.40
2022-08-25T23:20:00.069Z,2.30
2022-08-25T23:22:28.915Z,3.00
2022-08-25T23:24:56.993Z,2.40
2022-08-25T23:27:24.948Z,2.40
2022-08-25T23:29:52.878Z,2.40
2022-08-25T23:32:22.351Z,2.90
2022-08-25T23:34:50.360Z,2.70
2022-08-25T23:37:18.965Z,3.20
2022-08-25T23:39:49.494Z,2.60
2022-08-25T23:42:20.146Z,2.60
2022-08-25T23:44:49.753Z,3.40
2022-08-25T23:47:18.907Z,2.50
2022-08-25T23:49:48.655Z,2.80
2022-08-25T23:52:17.836Z,2.90
2022-08-25T23:54:46.639Z,3.00
2022-08-25T23:57:15.076Z,3.10
2022-08-25T23:59:43.446Z,3.30
